METAR Data
IDs: Format: Raw Decoded Include TAF

Data at: 0109 UTC 20 Jan 2022

FALA 200000Z AUTO 13009KT //// // ////// 18/14 Q1024